OPLA/LHE METAR and TAF weather

Enter ICAO airport designator
Station Type Date Time Source
OPLA METAR 2022/12/10 02:25 UTC NOAA

OPLA 100225Z360004KT 1500 R36/P2000 R18/P2000 BR FEW100 10/07 Q1015 BECMG 0800 RMK RMID/P2000 QFE990 A29.99


Station Type Date Time Source
OPLA Decoded METAR 2022/12/10 02:25 UTC NOAA

Lahore Airport, Pakistan (OPLA) 31-31N 074-24E 217M
Dec 09, 2022 - 09:25 PM EST / 2022.12.10 0225 UTC
Visibility: less than 1 mile:0
Sky conditions: mostly clear
Weather: mist
Temperature: 50 F (10 C)
Dew Point: 44 F (7 C)
Relative Humidity: 81%
Pressure (altimeter): 29.97 in. Hg (1015 hPa)
ob: OPLA 100225Z360004KT 1500 R36/P2000 R18/P2000 BR FEW100 10/07 Q1015 BECMG 0800 RMK RMID/P2000 QFE990 A29.99
cycle: 2

Station Type Date Time Source
OPLA TAF 2022/12/09 18:54 UTC NOAA

TAF TAF OPLA 091545Z 0918/1024 VRB02KT 2500 FU FEW100 TX24/1010Z TN09/1001Z
TEMPO 0922/1001 00000KT 1200 BR
BECMG 1001/1004 00000KT 0600 FG
BECMG 1004/1006 1500 FU
FM100800 33005KT 4000 HZ NSC
FM101600 36003KT 3000 FU NSC

Example: see airport list